sensor_id;sensor_type;location;lat;lon;timestamp;P1;durP1;ratioP1;P2;durP2;ratioP2
4986;SDS011;12674;51.500;7.552;2024-01-11T00:00:56;33.37;;;18.70;;
4986;SDS011;12674;51.500;7.552;2024-01-11T00:03:00;32.60;;;17.40;;
4986;SDS011;12674;51.500;7.552;2024-01-11T00:05:04;33.50;;;17.73;;
4986;SDS011;12674;51.500;7.552;2024-01-11T00:07:09;32.93;;;17.53;;
4986;SDS011;12674;51.500;7.552;2024-01-11T00:09:12;30.13;;;17.10;;
4986;SDS011;12674;51.500;7.552;2024-01-11T00:11:16;37.93;;;19.50;;
4986;SDS011;12674;51.500;7.552;2024-01-11T00:13:19;35.80;;;18.37;;
4986;SDS011;12674;51.500;7.552;2024-01-11T00:15:24;34.77;;;17.80;;
4986;SDS011;12674;51.500;7.552;2024-01-11T00:17:27;30.63;;;17.27;;
4986;SDS011;12674;51.500;7.552;2024-01-11T00:19:30;31.53;;;17.83;;
4986;SDS011;12674;51.500;7.552;2024-01-11T00:21:33;34.83;;;18.10;;
4986;SDS011;12674;51.500;7.552;2024-01-11T00:23:37;30.53;;;16.90;;
4986;SDS011;12674;51.500;7.552;2024-01-11T00:25:40;34.47;;;18.20;;
4986;SDS011;12674;51.500;7.552;2024-01-11T00:27:43;27.10;;;16.63;;
4986;SDS011;12674;51.500;7.552;2024-01-11T00:29:46;32.80;;;17.80;;
4986;SDS011;12674;51.500;7.552;2024-01-11T00:31:51;31.73;;;18.43;;
4986;SDS011;12674;51.500;7.552;2024-01-11T00:33:54;33.87;;;17.87;;
4986;SDS011;12674;51.500;7.552;2024-01-11T00:35:57;30.40;;;16.80;;
4986;SDS011;12674;51.500;7.552;2024-01-11T00:38:00;29.90;;;16.60;;
4986;SDS011;12674;51.500;7.552;2024-01-11T00:40:03;28.10;;;16.03;;
4986;SDS011;12674;51.500;7.552;2024-01-11T00:42:07;27.10;;;16.47;;
4986;SDS011;12674;51.500;7.552;2024-01-11T00:44:10;32.30;;;17.40;;
4986;SDS011;12674;51.500;7.552;2024-01-11T00:46:13;40.43;;;17.53;;
4986;SDS011;12674;51.500;7.552;2024-01-11T00:48:19;31.53;;;16.53;;
4986;SDS011;12674;51.500;7.552;2024-01-11T00:50:23;30.83;;;16.97;;
4986;SDS011;12674;51.500;7.552;2024-01-11T00:52:26;31.03;;;17.83;;
4986;SDS011;12674;51.500;7.552;2024-01-11T00:54:29;35.50;;;17.90;;
4986;SDS011;12674;51.500;7.552;2024-01-11T00:56:32;30.57;;;17.13;;
4986;SDS011;12674;51.500;7.552;2024-01-11T00:58:35;33.27;;;17.93;;
4986;SDS011;12674;51.500;7.552;2024-01-11T01:00:38;29.53;;;17.03;;
4986;SDS011;12674;51.500;7.552;2024-01-11T01:02:41;32.07;;;17.40;;
4986;SDS011;12674;51.500;7.552;2024-01-11T01:04:45;25.83;;;15.93;;
4986;SDS011;12674;51.500;7.552;2024-01-11T01:06:48;29.87;;;15.93;;
4986;SDS011;12674;51.500;7.552;2024-01-11T01:08:51;31.73;;;16.70;;
4986;SDS011;12674;51.500;7.552;2024-01-11T01:10:55;32.60;;;17.13;;
4986;SDS011;12674;51.500;7.552;2024-01-11T01:12:58;30.90;;;17.00;;
4986;SDS011;12674;51.500;7.552;2024-01-11T01:15:01;31.50;;;17.80;;
4986;SDS011;12674;51.500;7.552;2024-01-11T01:17:05;32.70;;;16.70;;
4986;SDS011;12674;51.500;7.552;2024-01-11T01:19:07;29.97;;;17.37;;
4986;SDS011;12674;51.500;7.552;2024-01-11T01:21:12;30.73;;;16.97;;
4986;SDS011;12674;51.500;7.552;2024-01-11T01:23:15;31.73;;;16.57;;
4986;SDS011;12674;51.500;7.552;2024-01-11T01:25:19;25.23;;;15.80;;
4986;SDS011;12674;51.500;7.552;2024-01-11T01:27:21;31.23;;;16.43;;
4986;SDS011;12674;51.500;7.552;2024-01-11T01:29:24;34.10;;;17.03;;
4986;SDS011;12674;51.500;7.552;2024-01-11T01:31:28;30.13;;;16.37;;
4986;SDS011;12674;51.500;7.552;2024-01-11T01:33:31;43.73;;;16.87;;
4986;SDS011;12674;51.500;7.552;2024-01-11T01:35:34;30.13;;;16.67;;
4986;SDS011;12674;51.500;7.552;2024-01-11T01:37:39;28.93;;;16.40;;
4986;SDS011;12674;51.500;7.552;2024-01-11T01:39:42;31.40;;;17.20;;
4986;SDS011;12674;51.500;7.552;2024-01-11T01:41:45;28.80;;;15.60;;
4986;SDS011;12674;51.500;7.552;2024-01-11T01:43:49;32.20;;;17.37;;
4986;SDS011;12674;51.500;7.552;2024-01-11T01:45:52;31.40;;;16.73;;
4986;SDS011;12674;51.500;7.552;2024-01-11T01:47:55;29.77;;;16.40;;
4986;SDS011;12674;51.500;7.552;2024-01-11T01:49:58;31.50;;;16.77;;
4986;SDS011;12674;51.500;7.552;2024-01-11T01:52:01;35.03;;;17.27;;
4986;SDS011;12674;51.500;7.552;2024-01-11T01:54:06;28.40;;;16.03;;
4986;SDS011;12674;51.500;7.552;2024-01-11T01:56:09;31.57;;;16.60;;
4986;SDS011;12674;51.500;7.552;2024-01-11T01:58:13;27.10;;;16.30;;
4986;SDS011;12674;51.500;7.552;2024-01-11T02:00:17;32.30;;;17.00;;
4986;SDS011;12674;51.500;7.552;2024-01-11T02:02:20;33.53;;;18.13;;
4986;SDS011;12674;51.500;7.552;2024-01-11T02:04:24;33.30;;;17.17;;
4986;SDS011;12674;51.500;7.552;2024-01-11T02:06:27;32.60;;;17.43;;
4986;SDS011;12674;51.500;7.552;2024-01-11T02:08:33;30.33;;;17.17;;
4986;SDS011;12674;51.500;7.552;2024-01-11T02:10:38;28.73;;;16.07;;
4986;SDS011;12674;51.500;7.552;2024-01-11T02:12:42;32.70;;;17.20;;
4986;SDS011;12674;51.500;7.552;2024-01-11T02:14:44;36.47;;;18.90;;
4986;SDS011;12674;51.500;7.552;2024-01-11T02:16:47;27.03;;;15.80;;
4986;SDS011;12674;51.500;7.552;2024-01-11T02:18:50;29.77;;;17.70;;
4986;SDS011;12674;51.500;7.552;2024-01-11T02:20:54;29.03;;;15.67;;
4986;SDS011;12674;51.500;7.552;2024-01-11T02:22:58;35.73;;;17.13;;
4986;SDS011;12674;51.500;7.552;2024-01-11T02:25:06;31.03;;;16.97;;
4986;SDS011;12674;51.500;7.552;2024-01-11T02:27:08;28.57;;;16.53;;
4986;SDS011;12674;51.500;7.552;2024-01-11T02:29:12;29.30;;;16.73;;
4986;SDS011;12674;51.500;7.552;2024-01-11T02:31:14;32.20;;;16.53;;
4986;SDS011;12674;51.500;7.552;2024-01-11T02:33:17;29.13;;;15.50;;
4986;SDS011;12674;51.500;7.552;2024-01-11T02:35:21;30.77;;;16.20;;
4986;SDS011;12674;51.500;7.552;2024-01-11T02:37:24;30.20;;;16.83;;
4986;SDS011;12674;51.500;7.552;2024-01-11T02:39:28;26.20;;;15.80;;
4986;SDS011;12674;51.500;7.552;2024-01-11T02:41:32;24.70;;;15.50;;
4986;SDS011;12674;51.500;7.552;2024-01-11T02:43:35;28.67;;;15.70;;
4986;SDS011;12674;51.500;7.552;2024-01-11T02:45:38;27.13;;;16.63;;
4986;SDS011;12674;51.500;7.552;2024-01-11T02:47:41;27.63;;;16.20;;
4986;SDS011;12674;51.500;7.552;2024-01-11T02:49:45;28.70;;;16.17;;
4986;SDS011;12674;51.500;7.552;2024-01-11T02:51:48;25.87;;;15.87;;
4986;SDS011;12674;51.500;7.552;2024-01-11T02:53:51;29.20;;;16.80;;
4986;SDS011;12674;51.500;7.552;2024-01-11T02:55:53;26.40;;;16.57;;
4986;SDS011;12674;51.500;7.552;2024-01-11T02:57:58;31.37;;;17.40;;
4986;SDS011;12674;51.500;7.552;2024-01-11T03:00:03;35.47;;;16.60;;
4986;SDS011;12674;51.500;7.552;2024-01-11T03:02:07;27.53;;;16.20;;
4986;SDS011;12674;51.500;7.552;2024-01-11T03:04:10;28.13;;;15.80;;
4986;SDS011;12674;51.500;7.552;2024-01-11T03:06:13;27.40;;;13.80;;
4986;SDS011;12674;51.500;7.552;2024-01-11T03:08:16;28.13;;;16.87;;
4986;SDS011;12674;51.500;7.552;2024-01-11T03:10:19;26.97;;;15.33;;
4986;SDS011;12674;51.500;7.552;2024-01-11T03:12:23;31.87;;;16.50;;
4986;SDS011;12674;51.500;7.552;2024-01-11T03:14:29;31.40;;;16.33;;
4986;SDS011;12674;51.500;7.552;2024-01-11T03:16:32;32.13;;;16.50;;
4986;SDS011;12674;51.500;7.552;2024-01-11T03:18:35;26.07;;;15.13;;
4986;SDS011;12674;51.500;7.552;2024-01-11T03:20:39;28.57;;;15.73;;
4986;SDS011;12674;51.500;7.552;2024-01-11T03:22:45;34.37;;;17.23;;
4986;SDS011;12674;51.500;7.552;2024-01-11T03:24:48;26.87;;;15.00;;
4986;SDS011;12674;51.500;7.552;2024-01-11T03:26:51;28.67;;;14.63;;
4986;SDS011;12674;51.500;7.552;2024-01-11T03:28:54;29.80;;;15.57;;
4986;SDS011;12674;51.500;7.552;2024-01-11T03:30:58;29.00;;;16.27;;
4986;SDS011;12674;51.500;7.552;2024-01-11T03:33:01;27.00;;;15.90;;
4986;SDS011;12674;51.500;7.552;2024-01-11T03:35:04;27.87;;;15.50;;
4986;SDS011;12674;51.500;7.552;2024-01-11T03:37:07;31.53;;;16.63;;
4986;SDS011;12674;51.500;7.552;2024-01-11T03:39:10;31.87;;;17.93;;
4986;SDS011;12674;51.500;7.552;2024-01-11T03:41:12;36.43;;;18.40;;
4986;SDS011;12674;51.500;7.552;2024-01-11T03:43:16;32.27;;;16.70;;
4986;SDS011;12674;51.500;7.552;2024-01-11T03:45:20;30.07;;;17.33;;
4986;SDS011;12674;51.500;7.552;2024-01-11T03:47:24;40.90;;;17.57;;
4986;SDS011;12674;51.500;7.552;2024-01-11T03:49:27;36.60;;;18.03;;
4986;SDS011;12674;51.500;7.552;2024-01-11T03:51:30;31.33;;;16.20;;
4986;SDS011;12674;51.500;7.552;2024-01-11T03:53:34;35.03;;;17.63;;
4986;SDS011;12674;51.500;7.552;2024-01-11T03:55:38;30.90;;;17.00;;
4986;SDS011;12674;51.500;7.552;2024-01-11T03:57:43;39.23;;;18.10;;
4986;SDS011;12674;51.500;7.552;2024-01-11T03:59:46;31.57;;;17.00;;
4986;SDS011;12674;51.500;7.552;2024-01-11T04:01:48;31.47;;;17.30;;
4986;SDS011;12674;51.500;7.552;2024-01-11T04:03:52;29.20;;;16.13;;
4986;SDS011;12674;51.500;7.552;2024-01-11T04:05:56;30.07;;;18.23;;
4986;SDS011;12674;51.500;7.552;2024-01-11T04:07:59;31.53;;;17.10;;
4986;SDS011;12674;51.500;7.552;2024-01-11T04:10:02;28.93;;;17.20;;
4986;SDS011;12674;51.500;7.552;2024-01-11T04:12:06;34.63;;;17.80;;
4986;SDS011;12674;51.500;7.552;2024-01-11T04:14:10;30.93;;;17.30;;
4986;SDS011;12674;51.500;7.552;2024-01-11T04:16:14;36.90;;;18.17;;
4986;SDS011;12674;51.500;7.552;2024-01-11T04:18:17;34.57;;;17.53;;
4986;SDS011;12674;51.500;7.552;2024-01-11T04:20:21;29.67;;;17.13;;
4986;SDS011;12674;51.500;7.552;2024-01-11T04:22:26;34.53;;;16.80;;
4986;SDS011;12674;51.500;7.552;2024-01-11T04:24:30;25.77;;;15.67;;
4986;SDS011;12674;51.500;7.552;2024-01-11T04:26:33;31.27;;;17.10;;
4986;SDS011;12674;51.500;7.552;2024-01-11T04:28:36;31.33;;;18.17;;
4986;SDS011;12674;51.500;7.552;2024-01-11T04:30:39;30.50;;;16.53;;
4986;SDS011;12674;51.500;7.552;2024-01-11T04:32:43;31.57;;;17.17;;
4986;SDS011;12674;51.500;7.552;2024-01-11T04:34:47;49.13;;;17.33;;
4986;SDS011;12674;51.500;7.552;2024-01-11T04:36:51;30.80;;;15.70;;
4986;SDS011;12674;51.500;7.552;2024-01-11T04:38:54;31.03;;;17.07;;
4986;SDS011;12674;51.500;7.552;2024-01-11T04:40:57;32.80;;;17.03;;
4986;SDS011;12674;51.500;7.552;2024-01-11T04:42:59;31.80;;;17.37;;
4986;SDS011;12674;51.500;7.552;2024-01-11T04:45:03;30.97;;;16.73;;
4986;SDS011;12674;51.500;7.552;2024-01-11T04:47:07;32.30;;;17.47;;
4986;SDS011;12674;51.500;7.552;2024-01-11T04:49:11;31.70;;;15.67;;
4986;SDS011;12674;51.500;7.552;2024-01-11T04:51:14;27.90;;;15.37;;
4986;SDS011;12674;51.500;7.552;2024-01-11T04:53:20;26.73;;;15.20;;
4986;SDS011;12674;51.500;7.552;2024-01-11T04:55:23;29.70;;;16.30;;
4986;SDS011;12674;51.500;7.552;2024-01-11T04:57:26;29.50;;;16.90;;
4986;SDS011;12674;51.500;7.552;2024-01-11T04:59:29;28.50;;;16.30;;
4986;SDS011;12674;51.500;7.552;2024-01-11T05:01:32;31.60;;;17.00;;
4986;SDS011;12674;51.500;7.552;2024-01-11T05:03:36;29.40;;;16.80;;
4986;SDS011;12674;51.500;7.552;2024-01-11T05:05:38;31.97;;;17.63;;
4986;SDS011;12674;51.500;7.552;2024-01-11T05:07:41;43.57;;;18.57;;
4986;SDS011;12674;51.500;7.552;2024-01-11T05:09:46;36.20;;;17.77;;
4986;SDS011;12674;51.500;7.552;2024-01-11T05:11:49;34.67;;;18.17;;
4986;SDS011;12674;51.500;7.552;2024-01-11T05:13:52;30.47;;;17.63;;
4986;SDS011;12674;51.500;7.552;2024-01-11T05:15:55;32.70;;;18.03;;
4986;SDS011;12674;51.500;7.552;2024-01-11T05:17:59;36.07;;;18.90;;
4986;SDS011;12674;51.500;7.552;2024-01-11T05:20:02;35.37;;;19.03;;
4986;SDS011;12674;51.500;7.552;2024-01-11T05:22:07;29.80;;;18.90;;
4986;SDS011;12674;51.500;7.552;2024-01-11T05:24:10;36.03;;;19.00;;
4986;SDS011;12674;51.500;7.552;2024-01-11T05:26:14;31.93;;;17.77;;
4986;SDS011;12674;51.500;7.552;2024-01-11T05:28:18;35.20;;;18.95;;
4986;SDS011;12674;51.500;7.552;2024-01-11T05:30:21;32.33;;;18.70;;
4986;SDS011;12674;51.500;7.552;2024-01-11T05:32:27;38.17;;;19.73;;
4986;SDS011;12674;51.500;7.552;2024-01-11T05:34:31;34.97;;;18.07;;
4986;SDS011;12674;51.500;7.552;2024-01-11T05:36:34;38.63;;;19.53;;
4986;SDS011;12674;51.500;7.552;2024-01-11T05:38:38;34.50;;;18.53;;
4986;SDS011;12674;51.500;7.552;2024-01-11T05:40:42;36.70;;;18.50;;
4986;SDS011;12674;51.500;7.552;2024-01-11T05:42:47;34.70;;;19.53;;
4986;SDS011;12674;51.500;7.552;2024-01-11T05:44:51;30.37;;;18.67;;
4986;SDS011;12674;51.500;7.552;2024-01-11T05:46:54;33.50;;;19.60;;
4986;SDS011;12674;51.500;7.552;2024-01-11T05:48:57;40.40;;;19.90;;
4986;SDS011;12674;51.500;7.552;2024-01-11T05:51:00;55.27;;;20.03;;
4986;SDS011;12674;51.500;7.552;2024-01-11T05:53:03;32.73;;;17.97;;
4986;SDS011;12674;51.500;7.552;2024-01-11T05:55:06;34.90;;;18.60;;
4986;SDS011;12674;51.500;7.552;2024-01-11T05:57:09;32.67;;;18.33;;
4986;SDS011;12674;51.500;7.552;2024-01-11T05:59:14;33.73;;;16.90;;
4986;SDS011;12674;51.500;7.552;2024-01-11T06:01:17;30.90;;;17.30;;
4986;SDS011;12674;51.500;7.552;2024-01-11T06:03:21;35.13;;;17.60;;
4986;SDS011;12674;51.500;7.552;2024-01-11T06:05:25;34.00;;;17.33;;
4986;SDS011;12674;51.500;7.552;2024-01-11T06:07:28;32.37;;;18.47;;
4986;SDS011;12674;51.500;7.552;2024-01-11T06:09:31;36.53;;;17.00;;
4986;SDS011;12674;51.500;7.552;2024-01-11T06:11:34;35.50;;;17.80;;
4986;SDS011;12674;51.500;7.552;2024-01-11T06:13:39;37.07;;;18.37;;
4986;SDS011;12674;51.500;7.552;2024-01-11T06:15:44;34.03;;;17.97;;
4986;SDS011;12674;51.500;7.552;2024-01-11T06:17:46;30.37;;;16.97;;
4986;SDS011;12674;51.500;7.552;2024-01-11T06:19:50;38.13;;;17.83;;
4986;SDS011;12674;51.500;7.552;2024-01-11T06:21:53;32.63;;;17.03;;
4986;SDS011;12674;51.500;7.552;2024-01-11T06:23:56;35.07;;;18.57;;
4986;SDS011;12674;51.500;7.552;2024-01-11T06:25:59;40.50;;;19.33;;
4986;SDS011;12674;51.500;7.552;2024-01-11T06:28:02;34.70;;;18.00;;
4986;SDS011;12674;51.500;7.552;2024-01-11T06:30:08;37.87;;;18.67;;
4986;SDS011;12674;51.500;7.552;2024-01-11T06:32:13;37.73;;;20.43;;
4986;SDS011;12674;51.500;7.552;2024-01-11T06:34:16;38.43;;;20.00;;
4986;SDS011;12674;51.500;7.552;2024-01-11T06:36:19;36.03;;;18.80;;
4986;SDS011;12674;51.500;7.552;2024-01-11T06:38:22;35.17;;;18.57;;
4986;SDS011;12674;51.500;7.552;2024-01-11T06:40:26;40.17;;;21.13;;
4986;SDS011;12674;51.500;7.552;2024-01-11T06:42:29;45.30;;;25.20;;
4986;SDS011;12674;51.500;7.552;2024-01-11T06:44:32;44.57;;;21.63;;
4986;SDS011;12674;51.500;7.552;2024-01-11T06:46:36;29.97;;;17.00;;
4986;SDS011;12674;51.500;7.552;2024-01-11T06:48:42;29.10;;;17.87;;
4986;SDS011;12674;51.500;7.552;2024-01-11T06:50:44;33.90;;;19.07;;
4986;SDS011;12674;51.500;7.552;2024-01-11T06:52:47;31.70;;;18.87;;
4986;SDS011;12674;51.500;7.552;2024-01-11T06:54:50;40.40;;;20.90;;
4986;SDS011;12674;51.500;7.552;2024-01-11T06:56:53;45.17;;;21.67;;
4986;SDS011;12674;51.500;7.552;2024-01-11T06:58:56;43.70;;;21.30;;
4986;SDS011;12674;51.500;7.552;2024-01-11T07:00:59;35.80;;;19.17;;
4986;SDS011;12674;51.500;7.552;2024-01-11T07:03:03;37.13;;;19.57;;
4986;SDS011;12674;51.500;7.552;2024-01-11T07:05:08;36.27;;;19.40;;
4986;SDS011;12674;51.500;7.552;2024-01-11T07:07:14;39.47;;;24.20;;
4986;SDS011;12674;51.500;7.552;2024-01-11T07:09:17;51.13;;;24.03;;
4986;SDS011;12674;51.500;7.552;2024-01-11T07:11:20;45.50;;;23.53;;
4986;SDS011;12674;51.500;7.552;2024-01-11T07:13:23;35.27;;;20.13;;
4986;SDS011;12674;51.500;7.552;2024-01-11T07:15:26;40.27;;;19.90;;
4986;SDS011;12674;51.500;7.552;2024-01-11T07:17:29;28.50;;;17.10;;
4986;SDS011;12674;51.500;7.552;2024-01-11T07:19:32;46.20;;;19.37;;
4986;SDS011;12674;51.500;7.552;2024-01-11T07:21:36;40.07;;;19.93;;
4986;SDS011;12674;51.500;7.552;2024-01-11T07:23:39;37.60;;;18.80;;
4986;SDS011;12674;51.500;7.552;2024-01-11T07:25:44;33.73;;;17.57;;
4986;SDS011;12674;51.500;7.552;2024-01-11T07:27:47;33.10;;;17.03;;
4986;SDS011;12674;51.500;7.552;2024-01-11T07:29:49;37.13;;;18.87;;
4986;SDS011;12674;51.500;7.552;2024-01-11T07:31:52;30.70;;;16.90;;
4986;SDS011;12674;51.500;7.552;2024-01-11T07:33:55;33.97;;;17.87;;
4986;SDS011;12674;51.500;7.552;2024-01-11T07:35:58;34.23;;;18.10;;
4986;SDS011;12674;51.500;7.552;2024-01-11T07:38:03;32.73;;;18.07;;
4986;SDS011;12674;51.500;7.552;2024-01-11T07:40:07;28.83;;;16.67;;
4986;SDS011;12674;51.500;7.552;2024-01-11T07:42:13;27.37;;;16.87;;
4986;SDS011;12674;51.500;7.552;2024-01-11T07:44:17;28.97;;;17.27;;
4986;SDS011;12674;51.500;7.552;2024-01-11T07:46:21;34.73;;;17.60;;
4986;SDS011;12674;51.500;7.552;2024-01-11T07:48:39;34.50;;;17.60;;
4986;SDS011;12674;51.500;7.552;2024-01-11T07:50:43;30.90;;;16.83;;
4986;SDS011;12674;51.500;7.552;2024-01-11T07:52:46;34.40;;;18.17;;
4986;SDS011;12674;51.500;7.552;2024-01-11T07:54:50;35.27;;;18.17;;
4986;SDS011;12674;51.500;7.552;2024-01-11T07:56:55;35.33;;;19.33;;
4986;SDS011;12674;51.500;7.552;2024-01-11T07:58:58;35.40;;;19.30;;
4986;SDS011;12674;51.500;7.552;2024-01-11T08:01:02;36.13;;;18.67;;
4986;SDS011;12674;51.500;7.552;2024-01-11T08:03:05;39.20;;;19.13;;
4986;SDS011;12674;51.500;7.552;2024-01-11T08:05:10;31.23;;;18.70;;
4986;SDS011;12674;51.500;7.552;2024-01-11T08:07:13;34.30;;;18.63;;
4986;SDS011;12674;51.500;7.552;2024-01-11T08:09:16;34.80;;;18.43;;
4986;SDS011;12674;51.500;7.552;2024-01-11T08:11:21;39.00;;;18.47;;
4986;SDS011;12674;51.500;7.552;2024-01-11T08:13:24;33.37;;;17.90;;
4986;SDS011;12674;51.500;7.552;2024-01-11T08:15:27;32.33;;;18.27;;
4986;SDS011;12674;51.500;7.552;2024-01-11T08:17:30;36.17;;;18.27;;
4986;SDS011;12674;51.500;7.552;2024-01-11T08:19:33;28.43;;;17.50;;
4986;SDS011;12674;51.500;7.552;2024-01-11T08:21:37;34.17;;;19.33;;
4986;SDS011;12674;51.500;7.552;2024-01-11T08:23:40;31.13;;;17.20;;
4986;SDS011;12674;51.500;7.552;2024-01-11T08:25:48;30.63;;;19.00;;
4986;SDS011;12674;51.500;7.552;2024-01-11T08:27:52;42.93;;;22.20;;
4986;SDS011;12674;51.500;7.552;2024-01-11T08:29:55;36.40;;;19.50;;
4986;SDS011;12674;51.500;7.552;2024-01-11T08:31:58;43.03;;;21.37;;
4986;SDS011;12674;51.500;7.552;2024-01-11T08:34:12;36.60;;;22.17;;
4986;SDS011;12674;51.500;7.552;2024-01-11T08:36:18;40.63;;;21.27;;
4986;SDS011;12674;51.500;7.552;2024-01-11T08:38:23;41.03;;;21.40;;
4986;SDS011;12674;51.500;7.552;2024-01-11T08:40:27;37.93;;;21.77;;
4986;SDS011;12674;51.500;7.552;2024-01-11T08:42:32;44.73;;;24.17;;
4986;SDS011;12674;51.500;7.552;2024-01-11T08:44:37;41.80;;;22.03;;
4986;SDS011;12674;51.500;7.552;2024-01-11T08:46:44;43.00;;;21.90;;
4986;SDS011;12674;51.500;7.552;2024-01-11T08:48:49;40.63;;;20.97;;
4986;SDS011;12674;51.500;7.552;2024-01-11T08:50:53;39.50;;;21.03;;
4986;SDS011;12674;51.500;7.552;2024-01-11T08:53:00;39.43;;;19.43;;
4986;SDS011;12674;51.500;7.552;2024-01-11T08:55:08;30.40;;;18.53;;
4986;SDS011;12674;51.500;7.552;2024-01-11T08:57:14;33.40;;;17.60;;
4986;SDS011;12674;51.500;7.552;2024-01-11T08:59:19;35.20;;;17.40;;
4986;SDS011;12674;51.500;7.552;2024-01-11T09:01:31;55.30;;;19.03;;
4986;SDS011;12674;51.500;7.552;2024-01-11T09:03:38;38.63;;;17.03;;
4986;SDS011;12674;51.500;7.552;2024-01-11T09:05:42;33.10;;;16.90;;
4986;SDS011;12674;51.500;7.552;2024-01-11T09:07:49;37.10;;;16.93;;
4986;SDS011;12674;51.500;7.552;2024-01-11T09:09:55;31.93;;;18.87;;
4986;SDS011;12674;51.500;7.552;2024-01-11T09:11:59;31.93;;;18.50;;
4986;SDS011;12674;51.500;7.552;2024-01-11T09:14:02;33.60;;;19.43;;
4986;SDS011;12674;51.500;7.552;2024-01-11T09:16:06;34.30;;;20.53;;
4986;SDS011;12674;51.500;7.552;2024-01-11T09:18:16;31.73;;;18.47;;
4986;SDS011;12674;51.500;7.552;2024-01-11T09:20:19;35.70;;;20.60;;
4986;SDS011;12674;51.500;7.552;2024-01-11T09:22:23;34.97;;;20.37;;
4986;SDS011;12674;51.500;7.552;2024-01-11T09:24:27;37.37;;;20.10;;
4986;SDS011;12674;51.500;7.552;2024-01-11T09:26:37;37.10;;;21.23;;
4986;SDS011;12674;51.500;7.552;2024-01-11T09:28:41;33.80;;;20.53;;
4986;SDS011;12674;51.500;7.552;2024-01-11T09:30:44;37.20;;;20.27;;
4986;SDS011;12674;51.500;7.552;2024-01-11T09:32:47;36.43;;;20.40;;
4986;SDS011;12674;51.500;7.552;2024-01-11T09:34:53;33.63;;;20.60;;
4986;SDS011;12674;51.500;7.552;2024-01-11T09:36:55;36.33;;;21.00;;
4986;SDS011;12674;51.500;7.552;2024-01-11T09:39:01;38.33;;;20.30;;
4986;SDS011;12674;51.500;7.552;2024-01-11T09:41:06;38.30;;;22.13;;
4986;SDS011;12674;51.500;7.552;2024-01-11T09:43:12;35.90;;;21.70;;
4986;SDS011;12674;51.500;7.552;2024-01-11T09:45:16;38.50;;;22.60;;
4986;SDS011;12674;51.500;7.552;2024-01-11T09:47:20;37.23;;;21.30;;
4986;SDS011;12674;51.500;7.552;2024-01-11T09:49:24;42.27;;;22.67;;
4986;SDS011;12674;51.500;7.552;2024-01-11T09:51:29;36.40;;;21.20;;
4986;SDS011;12674;51.500;7.552;2024-01-11T09:53:33;38.97;;;21.60;;
4986;SDS011;12674;51.500;7.552;2024-01-11T09:55:38;37.27;;;21.60;;
4986;SDS011;12674;51.500;7.552;2024-01-11T09:57:44;32.97;;;21.43;;
4986;SDS011;12674;51.500;7.552;2024-01-11T09:59:49;48.37;;;23.80;;
4986;SDS011;12674;51.500;7.552;2024-01-11T10:01:53;40.03;;;22.23;;
4986;SDS011;12674;51.500;7.552;2024-01-11T10:03:57;48.20;;;21.67;;
4986;SDS011;12674;51.500;7.552;2024-01-11T10:06:00;42.70;;;23.47;;
4986;SDS011;12674;51.500;7.552;2024-01-11T10:08:05;41.40;;;24.27;;
4986;SDS011;12674;51.500;7.552;2024-01-11T10:10:08;51.37;;;24.73;;
4986;SDS011;12674;51.500;7.552;2024-01-11T10:12:12;40.50;;;24.47;;
4986;SDS011;12674;51.500;7.552;2024-01-11T10:14:15;43.23;;;22.70;;
4986;SDS011;12674;51.500;7.552;2024-01-11T10:16:19;41.50;;;24.83;;
4986;SDS011;12674;51.500;7.552;2024-01-11T10:18:22;40.70;;;23.17;;
4986;SDS011;12674;51.500;7.552;2024-01-11T10:20:25;43.40;;;23.80;;
4986;SDS011;12674;51.500;7.552;2024-01-11T10:22:32;40.20;;;23.63;;
4986;SDS011;12674;51.500;7.552;2024-01-11T10:24:37;37.97;;;22.77;;
4986;SDS011;12674;51.500;7.552;2024-01-11T10:26:41;42.37;;;24.10;;
4986;SDS011;12674;51.500;7.552;2024-01-11T10:28:47;47.60;;;24.80;;
4986;SDS011;12674;51.500;7.552;2024-01-11T10:30:50;41.37;;;23.20;;
4986;SDS011;12674;51.500;7.552;2024-01-11T10:32:55;40.60;;;24.30;;
4986;SDS011;12674;51.500;7.552;2024-01-11T10:35:03;53.80;;;24.27;;
4986;SDS011;12674;51.500;7.552;2024-01-11T10:37:07;42.73;;;24.50;;
4986;SDS011;12674;51.500;7.552;2024-01-11T10:39:12;48.90;;;23.10;;
4986;SDS011;12674;51.500;7.552;2024-01-11T10:41:19;45.70;;;27.17;;
4986;SDS011;12674;51.500;7.552;2024-01-11T10:43:21;44.97;;;25.47;;
4986;SDS011;12674;51.500;7.552;2024-01-11T10:45:25;40.37;;;23.67;;
4986;SDS011;12674;51.500;7.552;2024-01-11T10:47:30;40.23;;;24.47;;
4986;SDS011;12674;51.500;7.552;2024-01-11T10:49:32;45.70;;;23.37;;
4986;SDS011;12674;51.500;7.552;2024-01-11T10:51:37;44.20;;;25.33;;
4986;SDS011;12674;51.500;7.552;2024-01-11T10:53:41;41.40;;;26.03;;
4986;SDS011;12674;51.500;7.552;2024-01-11T10:55:48;41.07;;;24.67;;
4986;SDS011;12674;51.500;7.552;2024-01-11T10:57:57;47.47;;;26.77;;
4986;SDS011;12674;51.500;7.552;2024-01-11T11:00:01;47.00;;;26.20;;
4986;SDS011;12674;51.500;7.552;2024-01-11T11:02:06;40.27;;;25.30;;
4986;SDS011;12674;51.500;7.552;2024-01-11T11:04:14;42.57;;;25.73;;
4986;SDS011;12674;51.500;7.552;2024-01-11T11:06:17;45.37;;;24.37;;
4986;SDS011;12674;51.500;7.552;2024-01-11T11:08:26;51.27;;;23.13;;
4986;SDS011;12674;51.500;7.552;2024-01-11T11:10:30;47.43;;;26.23;;
4986;SDS011;12674;51.500;7.552;2024-01-11T11:12:34;46.60;;;25.60;;
4986;SDS011;12674;51.500;7.552;2024-01-11T11:14:40;40.50;;;22.97;;
4986;SDS011;12674;51.500;7.552;2024-01-11T11:16:46;45.17;;;24.53;;
4986;SDS011;12674;51.500;7.552;2024-01-11T11:18:50;41.37;;;23.53;;
4986;SDS011;12674;51.500;7.552;2024-01-11T11:20:55;41.07;;;24.70;;
4986;SDS011;12674;51.500;7.552;2024-01-11T11:23:04;46.97;;;25.17;;
4986;SDS011;12674;51.500;7.552;2024-01-11T11:25:08;43.93;;;25.10;;
4986;SDS011;12674;51.500;7.552;2024-01-11T11:27:13;46.40;;;25.40;;
4986;SDS011;12674;51.500;7.552;2024-01-11T11:29:16;44.33;;;26.50;;
4986;SDS011;12674;51.500;7.552;2024-01-11T11:33:41;45.40;;;26.23;;
4986;SDS011;12674;51.500;7.552;2024-01-11T11:35:45;52.60;;;24.83;;
4986;SDS011;12674;51.500;7.552;2024-01-11T11:37:53;48.23;;;24.80;;
4986;SDS011;12674;51.500;7.552;2024-01-11T11:39:57;53.73;;;25.17;;
4986;SDS011;12674;51.500;7.552;2024-01-11T11:42:03;42.60;;;24.93;;
4986;SDS011;12674;51.500;7.552;2024-01-11T11:44:06;41.90;;;24.83;;
4986;SDS011;12674;51.500;7.552;2024-01-11T11:46:12;40.97;;;24.47;;
4986;SDS011;12674;51.500;7.552;2024-01-11T11:51:01;50.20;;;26.20;;
4986;SDS011;12674;51.500;7.552;2024-01-11T11:53:06;52.43;;;27.43;;
4986;SDS011;12674;51.500;7.552;2024-01-11T11:55:09;41.73;;;24.60;;
4986;SDS011;12674;51.500;7.552;2024-01-11T11:57:12;42.73;;;24.17;;
4986;SDS011;12674;51.500;7.552;2024-01-11T11:59:19;38.83;;;22.50;;
4986;SDS011;12674;51.500;7.552;2024-01-11T12:01:23;42.27;;;23.30;;
4986;SDS011;12674;51.500;7.552;2024-01-11T12:03:28;43.73;;;24.17;;
4986;SDS011;12674;51.500;7.552;2024-01-11T12:05:35;45.43;;;25.97;;
4986;SDS011;12674;51.500;7.552;2024-01-11T12:07:41;45.83;;;26.87;;
4986;SDS011;12674;51.500;7.552;2024-01-11T12:09:45;48.97;;;25.70;;
4986;SDS011;12674;51.500;7.552;2024-01-11T12:11:49;49.40;;;27.03;;
4986;SDS011;12674;51.500;7.552;2024-01-11T12:14:08;39.33;;;24.80;;
4986;SDS011;12674;51.500;7.552;2024-01-11T12:16:11;39.20;;;24.73;;
4986;SDS011;12674;51.500;7.552;2024-01-11T12:18:14;40.63;;;24.40;;
4986;SDS011;12674;51.500;7.552;2024-01-11T12:20:18;39.87;;;23.10;;